Needmore, North Carolina
Current Conditions -  °F | °C
As of 5:55 AM on Monday 20 Oct 2014 (Local Time) from KGKT Reporting Station
Clear Clear  
Wind Chill: 43°   Ceiling: Unl
Heat Index: 43°   Visibility: 6mi
Dew Point: 41°   Wind: 0mph
Humidity: 93%   Direction: NA
Pressure: 30.07"   Gusts: NA
Location:  35.5051°N, 83.603°W
Report Text: KGKT 200955Z AUTO 00000KT 6SM CLR 06/05 A3007 RMK
Loading
Personal Weather Stations






























Interactive Weather Map
Tropical Storm Tracking
New forecast layout! Learn more

10-Day Weather Forecast

Advertisements
Track Severe Weather on mobile